Time;durP1;ratioP1;P1;durP2;ratioP2;P2;SDS_P1;SDS_P2;PMS_P1;PMS_P2;Temp;Humidity;BMP_temperature;BMP_pressure;BME280_temperature;BME280_humidity;BME280_pressure;Samples;Min_cycle;Max_cycle;Signal;HPM_P1;HPM_P2
2021/11/09 00:00:16;;;;;;;;;24.00;21.00;;;;;;;;5063978;28;11555;-88
2021/11/09 00:02:46;;;;;;;;;17.50;17.00;;;;;;;;5064762;28;11556;-85
2021/11/09 00:05:15;;;;;;;;;23.75;20.50;;;;;;;;5064691;28;11525;-77
2021/11/09 00:07:45;;;;;;;;;24.50;17.75;;;;;;;;5064221;28;11530;-85
2021/11/09 00:10:13;;;;;;;;;19.00;19.00;;;;;;;;5062940;28;11566;-89
2021/11/09 00:12:42;;;;;;;;;28.00;25.00;;;;;;;;5065153;28;11562;-88
2021/11/09 00:15:14;;;;;;;;;21.50;21.50;;;;;;;;5063890;28;11777;-86
2021/11/09 00:17:42;;;;;;;;;26.00;24.00;;;;;;;;5060656;28;11586;-81
2021/11/09 00:20:12;;;;;;;;;23.50;20.50;;;;;;;;5061164;28;11547;-89
2021/11/09 00:22:40;;;;;;;;;8.00;3.75;;;;;;;;5064158;28;11574;-88
2021/11/09 00:25:08;;;;;;;;;21.00;20.25;;;;;;;;5064432;28;11633;-89
2021/11/09 00:27:36;;;;;;;;;21.75;17.50;;;;;;;;5063996;28;11539;-86
2021/11/09 00:30:05;;;;;;;;;18.50;16.25;;;;;;;;5064311;28;11528;-89
2021/11/09 00:32:32;;;;;;;;;24.00;20.25;;;;;;;;5070413;28;11575;-85
2021/11/09 00:35:00;;;;;;;;;18.75;16.25;;;;;;;;5063264;28;11643;-88
2021/11/09 00:37:28;;;;;;;;;19.75;17.25;;;;;;;;5062999;28;11595;-89
2021/11/09 00:39:56;;;;;;;;;25.50;24.25;;;;;;;;5062134;28;11564;-87
2021/11/09 00:42:24;;;;;;;;;20.50;20.00;;;;;;;;5063715;28;11653;-76
2021/11/09 00:44:51;;;;;;;;;29.00;21.75;;;;;;;;5062953;28;11655;-84
2021/11/09 00:47:18;;;;;;;;;20.25;17.75;;;;;;;;5064119;28;11568;-88
2021/11/09 00:49:45;;;;;;;;;26.50;21.25;;;;;;;;5061693;28;11670;-86
2021/11/09 00:52:14;;;;;;;;;22.00;21.25;;;;;;;;5037948;28;11570;-86
2021/11/09 00:54:43;;;;;;;;;24.50;20.25;;;;;;;;5063405;28;11546;-81
2021/11/09 00:57:10;;;;;;;;;25.00;22.25;;;;;;;;5062976;28;11616;-88
2021/11/09 00:59:37;;;;;;;;;34.00;28.00;;;;;;;;5062149;28;11648;-81
2021/11/09 01:02:06;;;;;;;;;16.67;13.00;;;;;;;;5062495;28;11541;-87
2021/11/09 01:04:34;;;;;;;;;30.75;27.00;;;;;;;;5063836;28;11540;-84
2021/11/09 01:07:02;;;;;;;;;39.00;31.33;;;;;;;;5062155;28;11580;-78
2021/11/09 01:09:29;;;;;;;;;30.00;27.67;;;;;;;;5063588;28;11664;-85
2021/11/09 01:11:58;;;;;;;;;32.00;28.33;;;;;;;;5062817;28;11700;-83
2021/11/09 01:14:27;;;;;;;;;38.67;35.00;;;;;;;;5066091;28;12315;-84
2021/11/09 01:16:55;;;;;;;;;32.33;23.67;;;;;;;;5055756;28;11550;-86
2021/11/09 01:19:23;;;;;;;;;34.33;32.00;;;;;;;;5062312;28;11564;-84
2021/11/09 01:21:51;;;;;;;;;30.00;30.00;;;;;;;;5064206;28;11538;-86
2021/11/09 01:24:19;;;;;;;;;34.00;33.67;;;;;;;;5062619;28;11564;-85
2021/11/09 01:26:47;;;;;;;;;34.00;30.67;;;;;;;;5043810;28;11531;-86
2021/11/09 01:29:16;;;;;;;;;37.00;31.67;;;;;;;;5065925;28;11515;-84
2021/11/09 01:31:44;;;;;;;;;25.67;25.67;;;;;;;;5070451;28;11526;-85
2021/11/09 01:34:11;;;;;;;;;35.33;26.33;;;;;;;;5066714;28;11624;-83
2021/11/09 01:36:39;;;;;;;;;28.67;24.33;;;;;;;;5048144;28;12455;-83
2021/11/09 01:39:08;;;;;;;;;24.67;19.67;;;;;;;;5066410;28;11555;-89
2021/11/09 01:41:36;;;;;;;;;40.67;35.33;;;;;;;;5065034;28;11554;-83
2021/11/09 01:44:03;;;;;;;;;36.33;32.00;;;;;;;;5067133;28;12168;-87
2021/11/09 01:46:33;;;;;;;;;21.33;20.67;;;;;;;;5049211;28;11563;-79
2021/11/09 01:49:00;;;;;;;;;29.33;29.00;;;;;;;;5066231;28;11677;-87
2021/11/09 01:51:29;;;;;;;;;33.33;27.33;;;;;;;;5066467;28;11585;-88
2021/11/09 01:53:57;;;;;;;;;26.67;26.67;;;;;;;;5048701;28;11676;-82
2021/11/09 01:56:28;;;;;;;;;29.00;25.00;;;;;;;;5062158;28;11524;-85
2021/11/09 01:58:56;;;;;;;;;38.00;33.00;;;;;;;;5063718;28;11561;-85
2021/11/09 02:01:25;;;;;;;;;32.33;32.33;;;;;;;;5047676;28;11460;-86
2021/11/09 02:03:57;;;;;;;;;43.00;35.00;;;;;;;;5066125;28;11622;-84
2021/11/09 02:06:25;;;;;;;;;38.33;37.00;;;;;;;;5062729;28;8992;-90
2021/11/09 02:08:53;;;;;;;;;28.67;27.00;;;;;;;;5065805;28;9114;-90
2021/11/09 02:11:20;;;;;;;;;37.00;37.00;;;;;;;;5065857;28;11470;-90
2021/11/09 02:13:47;;;;;;;;;32.67;27.67;;;;;;;;5066572;28;11608;-83
2021/11/09 02:16:16;;;;;;;;;26.00;21.00;;;;;;;;5071584;28;11528;-80
2021/11/09 02:18:43;;;;;;;;;33.00;29.00;;;;;;;;5064999;28;11515;-80
2021/11/09 02:21:13;;;;;;;;;23.33;23.33;;;;;;;;5065154;28;11524;-82
2021/11/09 02:23:44;;;;;;;;;34.33;30.67;;;;;;;;5066578;28;11543;-86
2021/11/09 02:26:12;;;;;;;;;28.33;27.33;;;;;;;;5068485;28;8870;-80
2021/11/09 02:28:40;;;;;;;;;31.00;28.00;;;;;;;;5067748;28;11547;-80
2021/11/09 02:31:08;;;;;;;;;36.67;34.67;;;;;;;;5070918;28;8886;-86
2021/11/09 02:33:36;;;;;;;;;31.67;29.67;;;;;;;;5076319;28;8878;-81
2021/11/09 02:36:04;;;;;;;;;35.00;30.67;;;;;;;;5065239;28;8893;-82
2021/11/09 02:38:33;;;;;;;;;39.00;34.33;;;;;;;;5064438;28;8874;-82
2021/11/09 02:41:00;;;;;;;;;35.33;33.33;;;;;;;;5065547;28;8858;-80
2021/11/09 02:43:28;;;;;;;;;34.67;34.67;;;;;;;;5065437;28;8920;-79
2021/11/09 02:46:18;;;;;;;;;33.00;28.00;;;;;;;;5065849;28;8886;-83
2021/11/09 02:48:52;;;;;;;;;33.00;31.00;;;;;;;;5066057;28;8835;-87
2021/11/09 02:51:22;;;;;;;;;28.33;22.67;;;;;;;;5064427;28;8898;-81
2021/11/09 02:53:54;;;;;;;;;25.67;24.00;;;;;;;;5070242;28;8858;-83
2021/11/09 02:56:25;;;;;;;;;23.67;23.67;;;;;;;;5062909;28;8864;-79
2021/11/09 02:58:57;;;;;;;;;24.67;24.67;;;;;;;;5066352;28;8859;-91
2021/11/09 03:01:28;;;;;;;;;28.67;28.67;;;;;;;;5064809;28;8787;-83
2021/11/09 03:04:03;;;;;;;;;23.67;21.33;;;;;;;;5063557;28;8847;-88
2021/11/09 03:06:34;;;;;;;;;25.33;25.33;;;;;;;;5066227;28;8885;-89
2021/11/09 03:09:09;;;;;;;;;27.00;23.33;;;;;;;;5064407;28;8898;-88
2021/11/09 03:11:38;;;;;;;;;26.00;26.00;;;;;;;;5065730;28;8870;-87
2021/11/09 03:14:06;;;;;;;;;22.00;18.33;;;;;;;;5067777;28;8838;-88
2021/11/09 03:16:36;;;;;;;;;24.00;23.00;;;;;;;;5061236;28;11620;-88
2021/11/09 03:19:12;;;;;;;;;20.00;17.67;;;;;;;;5063650;28;8877;-88
2021/11/09 03:44:17;;;;;;;;;19.33;16.33;;;;;;;;5082852;28;11537;-83
2021/11/09 03:46:47;;;;;;;;;21.33;18.00;;;;;;;;5078161;28;11536;-86
2021/11/09 03:49:15;;;;;;;;;20.33;19.00;;;;;;;;5082653;28;11535;-87
2021/11/09 03:51:43;;;;;;;;;21.33;21.33;;;;;;;;5085148;28;11590;-88
2021/11/09 03:54:13;;;;;;;;;17.67;17.67;;;;;;;;5085004;28;11523;-87
2021/11/09 03:56:47;;;;;;;;;16.67;16.67;;;;;;;;5075731;28;11617;-85
2021/11/09 03:59:17;;;;;;;;;20.00;19.33;;;;;;;;5080858;28;11596;-87
2021/11/09 04:02:00;;;;;;;;;19.33;19.33;;;;;;;;5066448;28;8798;-90
2021/11/09 04:04:35;;;;;;;;;24.33;19.33;;;;;;;;5078356;28;8853;-87
2021/11/09 04:07:06;;;;;;;;;16.00;16.00;;;;;;;;5084365;28;8850;-88
2021/11/09 04:09:44;;;;;;;;;17.33;17.33;;;;;;;;5084147;28;8846;-88
2021/11/09 04:12:25;;;;;;;;;23.00;22.00;;;;;;;;5084172;28;11566;-88
2021/11/09 04:14:56;;;;;;;;;4.00;0.00;;;;;;;;5080540;28;8830;-84
2021/11/09 04:17:33;;;;;;;;;23.67;22.00;;;;;;;;5083833;28;8874;-87
2021/11/09 04:20:06;;;;;;;;;31.33;29.33;;;;;;;;5081275;28;8839;-82
2021/11/09 04:28:35;;;;;;;;;25.33;20.33;;;;;;;;5090750;28;9059;-87
2021/11/09 04:31:15;;;;;;;;;35.33;30.67;;;;;;;;5074096;28;8797;-87
2021/11/09 04:53:07;;;;;;;;;31.00;25.67;;;;;;;;5042350;28;8840;-87
2021/11/09 05:01:32;;;;;;;;;17.33;15.00;;;;;;;;5035682;28;8796;-87
2021/11/09 05:09:47;;;;;;;;;24.00;18.00;;;;;;;;5001992;28;11645;-85
2021/11/09 05:12:14;;;;;;;;;15.67;14.00;;;;;;;;5000872;28;8872;-83
2021/11/09 05:14:42;;;;;;;;;14.33;11.33;;;;;;;;5029579;28;9516;-91
2021/11/09 05:17:10;;;;;;;;;22.67;20.67;;;;;;;;5045426;28;11598;-80
2021/11/09 05:19:37;;;;;;;;;17.67;17.67;;;;;;;;5053016;28;10254;-84
2021/11/09 05:22:05;;;;;;;;;17.00;15.00;;;;;;;;5058107;28;8857;-82
2021/11/09 05:24:32;;;;;;;;;13.00;13.00;;;;;;;;5058477;28;9698;-81
2021/11/09 05:27:00;;;;;;;;;15.67;15.33;;;;;;;;5029596;28;8990;-83
2021/11/09 05:29:28;;;;;;;;;16.33;15.00;;;;;;;;5056533;28;11660;-80
2021/11/09 05:31:58;;;;;;;;;22.67;22.67;;;;;;;;5041331;28;11558;-81
2021/11/09 05:34:29;;;;;;;;;22.33;15.67;;;;;;;;5041367;28;8904;-84
2021/11/09 05:36:57;;;;;;;;;16.00;13.67;;;;;;;;5028054;28;11647;-83
2021/11/09 05:39:31;;;;;;;;;20.00;16.00;;;;;;;;5029546;28;11687;-83
2021/11/09 05:41:59;;;;;;;;;22.33;18.33;;;;;;;;5027507;28;11622;-86
2021/11/09 05:44:27;;;;;;;;;19.33;19.00;;;;;;;;5026385;28;9035;-82
2021/11/09 05:46:56;;;;;;;;;19.00;17.33;;;;;;;;5028563;28;8883;-86
2021/11/09 05:49:25;;;;;;;;;12.00;12.00;;;;;;;;5022745;28;11622;-84
2021/11/09 05:51:52;;;;;;;;;13.33;12.33;;;;;;;;5026764;28;12411;-83
2021/11/09 05:54:20;;;;;;;;;15.00;13.00;;;;;;;;5027933;28;8883;-82
2021/11/09 05:56:47;;;;;;;;;22.00;19.33;;;;;;;;5030744;28;11673;-85
2021/11/09 05:59:14;;;;;;;;;24.67;20.33;;;;;;;;5008302;28;8868;-85
2021/11/09 06:01:42;;;;;;;;;23.33;19.00;;;;;;;;5007361;28;9612;-82
2021/11/09 06:04:10;;;;;;;;;20.67;20.67;;;;;;;;5009229;28;11713;-84
2021/11/09 06:06:38;;;;;;;;;15.67;15.67;;;;;;;;5012923;28;8900;-86
2021/11/09 06:09:05;;;;;;;;;24.33;20.00;;;;;;;;5026791;28;8870;-85
2021/11/09 06:11:33;;;;;;;;;15.33;15.00;;;;;;;;5024833;28;9704;-89
2021/11/09 06:14:00;;;;;;;;;17.33;17.33;;;;;;;;5026376;28;11745;-87
2021/11/09 06:16:27;;;;;;;;;18.00;18.00;;;;;;;;5024589;28;11606;-85
2021/11/09 06:18:55;;;;;;;;;23.00;23.00;;;;;;;;5025124;28;8929;-86
2021/11/09 06:21:23;;;;;;;;;21.33;21.33;;;;;;;;5010224;28;8856;-77
2021/11/09 06:23:51;;;;;;;;;30.67;27.00;;;;;;;;5023733;28;8877;-78
2021/11/09 06:26:18;;;;;;;;;34.67;34.67;;;;;;;;5025860;28;8889;-86
2021/11/09 06:28:45;;;;;;;;;28.00;23.00;;;;;;;;5024784;28;8909;-83
2021/11/09 06:31:13;;;;;;;;;16.00;16.00;;;;;;;;5027558;28;8834;-83
2021/11/09 06:33:40;;;;;;;;;24.00;22.00;;;;;;;;5025607;28;9674;-78
2021/11/09 06:36:08;;;;;;;;;22.67;22.67;;;;;;;;5023597;28;8881;-81
2021/11/09 06:38:37;;;;;;;;;33.00;26.33;;;;;;;;5024709;28;8859;-83
2021/11/09 06:41:05;;;;;;;;;32.33;30.00;;;;;;;;5025518;28;8918;-82
2021/11/09 06:43:32;;;;;;;;;34.00;34.00;;;;;;;;5008281;28;8875;-81
2021/11/09 06:46:00;;;;;;;;;26.33;26.33;;;;;;;;5023962;28;8894;-83
2021/11/09 06:48:28;;;;;;;;;39.33;32.67;;;;;;;;5024700;28;8962;-82
2021/11/09 06:50:56;;;;;;;;;38.33;31.00;;;;;;;;5023065;28;8869;-85
2021/11/09 06:53:27;;;;;;;;;32.67;29.67;;;;;;;;5008939;28;8905;-86
2021/11/09 06:55:56;;;;;;;;;0.67;0.67;;;;;;;;5025941;28;8958;-84
2021/11/09 06:58:24;;;;;;;;;32.33;26.00;;;;;;;;5025535;28;8896;-84
2021/11/09 07:00:51;;;;;;;;;23.33;23.33;;;;;;;;5026170;28;8786;-85
2021/11/09 07:03:19;;;;;;;;;26.33;24.67;;;;;;;;5024177;28;8915;-84
2021/11/09 07:05:46;;;;;;;;;28.67;25.67;;;;;;;;5026332;28;8967;-85
2021/11/09 07:08:14;;;;;;;;;22.33;22.00;;;;;;;;5007836;28;8888;-85
2021/11/09 07:10:43;;;;;;;;;33.00;26.00;;;;;;;;5025823;28;8904;-85
2021/11/09 07:13:12;;;;;;;;;36.00;25.67;;;;;;;;5024066;28;8861;-86
2021/11/09 07:15:39;;;;;;;;;30.00;29.67;;;;;;;;5024645;28;8887;-85
2021/11/09 07:18:08;;;;;;;;;31.67;26.67;;;;;;;;5033857;28;8866;-84
2021/11/09 07:20:37;;;;;;;;;29.67;27.00;;;;;;;;5060072;28;8874;-86
2021/11/09 07:23:06;;;;;;;;;25.67;24.67;;;;;;;;5041664;28;8870;-86
2021/11/09 07:25:33;;;;;;;;;34.00;33.00;;;;;;;;5024316;28;8878;-85
2021/11/09 07:28:01;;;;;;;;;29.67;27.00;;;;;;;;5043611;28;8870;-86
2021/11/09 07:30:41;;;;;;;;;31.67;30.33;;;;;;;;5018584;28;8941;-86
2021/11/09 07:33:08;;;;;;;;;27.67;27.67;;;;;;;;5030656;28;9627;-86
2021/11/09 07:35:36;;;;;;;;;30.00;26.67;;;;;;;;5023364;28;8862;-76
2021/11/09 07:38:03;;;;;;;;;38.00;35.00;;;;;;;;5025515;28;8917;-75
2021/11/09 07:40:30;;;;;;;;;36.00;33.00;;;;;;;;5030384;28;9666;-79
2021/11/09 07:42:58;;;;;;;;;37.33;33.33;;;;;;;;5028078;28;8992;-74
2021/11/09 07:45:25;;;;;;;;;38.00;31.33;;;;;;;;5024101;28;8908;-74
2021/11/09 07:47:56;;;;;;;;;47.67;39.00;;;;;;;;5036229;28;8874;-74
2021/11/09 07:50:24;;;;;;;;;57.00;44.33;;;;;;;;5030946;28;8907;-74
2021/11/09 07:52:53;;;;;;;;;40.00;39.67;;;;;;;;5044478;28;8969;-74
2021/11/09 07:55:21;;;;;;;;;41.67;38.67;;;;;;;;5033924;28;8893;-73
2021/11/09 07:57:52;;;;;;;;;45.67;38.33;;;;;;;;5024255;28;8865;-74
2021/11/09 08:00:24;;;;;;;;;34.67;31.00;;;;;;;;5036758;28;8862;-74
2021/11/09 08:03:02;;;;;;;;;30.67;27.67;;;;;;;;5036294;28;11638;-74
2021/11/09 08:05:36;;;;;;;;;32.33;28.67;;;;;;;;5030933;28;8885;-74
2021/11/09 08:08:07;;;;;;;;;37.00;34.33;;;;;;;;5026890;28;8934;-74
2021/11/09 08:10:34;;;;;;;;;38.67;35.00;;;;;;;;5037601;28;12477;-74
2021/11/09 08:13:02;;;;;;;;;44.00;39.00;;;;;;;;5029903;28;11810;-74
2021/11/09 08:15:29;;;;;;;;;34.67;26.33;;;;;;;;5030668;28;11641;-74
2021/11/09 08:17:57;;;;;;;;;35.33;33.00;;;;;;;;5025202;28;11630;-74
2021/11/09 08:20:24;;;;;;;;;44.00;42.00;;;;;;;;5029829;28;11654;-76
2021/11/09 08:22:53;;;;;;;;;44.67;40.00;;;;;;;;5024510;28;8915;-75
2021/11/09 08:25:21;;;;;;;;;37.33;35.67;;;;;;;;5022058;28;12300;-75
2021/11/09 08:27:48;;;;;;;;;38.67;37.00;;;;;;;;5032258;28;11605;-75
2021/11/09 08:30:16;;;;;;;;;34.50;30.00;;;;;;;;5041439;28;13138;-75
2021/11/09 08:32:45;;;;;;;;;35.50;35.50;;;;;;;;5030034;28;11736;-76
2021/11/09 08:35:15;;;;;;;;;35.75;34.25;;;;;;;;5023224;28;11600;-75
2021/11/09 08:37:42;;;;;;;;;33.25;29.25;;;;;;;;5033793;28;11661;-75
2021/11/09 08:40:17;;;;;;;;;33.50;30.25;;;;;;;;5038705;28;11798;-76
2021/11/09 08:42:48;;;;;;;;;26.50;26.50;;;;;;;;5027195;28;11608;-75
2021/11/09 08:45:23;;;;;;;;;32.50;30.00;;;;;;;;5027509;28;11611;-74
2021/11/09 08:47:54;;;;;;;;;36.50;30.75;;;;;;;;5038279;28;11631;-73
2021/11/09 08:50:25;;;;;;;;;64.67;53.67;;;;;;;;5015909;28;11649;-74
2021/11/09 08:52:54;;;;;;;;;65.33;52.33;;;;;;;;5025634;28;8881;-74
2021/11/09 08:55:31;;;;;;;;;55.00;41.50;;;;;;;;5027507;28;8877;-75
2021/11/09 09:04:18;;;;;;;;;36.00;36.00;;;;;;;;4941668;29;12995;-75
2021/11/09 09:06:47;;;;;;;;;43.00;38.75;;;;;;;;4954532;28;11621;-76
2021/11/09 09:09:15;;;;;;;;;33.25;31.00;;;;;;;;5004529;28;11752;-74
2021/11/09 09:11:44;;;;;;;;;28.00;28.00;;;;;;;;5021100;28;11763;-75
2021/11/09 09:14:12;;;;;;;;;49.75;41.50;;;;;;;;5043823;28;11630;-76
2021/11/09 09:16:44;;;;;;;;;38.25;38.25;;;;;;;;5033732;28;11653;-76
2021/11/09 09:19:12;;;;;;;;;30.00;28.75;;;;;;;;5022389;28;12522;-76
2021/11/09 09:21:43;;;;;;;;;33.50;32.50;;;;;;;;5033924;28;13689;-76
2021/11/09 09:24:17;;;;;;;;;39.25;35.50;;;;;;;;5044428;28;11616;-74
2021/11/09 09:26:51;;;;;;;;;30.00;30.00;;;;;;;;5046069;28;11715;-76
2021/11/09 09:29:32;;;;;;;;;35.50;32.00;;;;;;;;5031280;28;11659;-75
2021/11/09 09:57:05;;;;;;;;;22.25;20.75;;;;;;;;5008020;28;11171;-74
2021/11/09 09:59:39;;;;;;;;;21.50;17.25;;;;;;;;5045833;28;11055;-75
2021/11/09 10:02:19;;;;;;;;;20.25;14.50;;;;;;;;5016900;28;10821;-75
2021/11/09 10:04:49;;;;;;;;;26.50;24.25;;;;;;;;5029993;28;10858;-75
2021/11/09 10:07:34;;;;;;;;;26.75;24.50;;;;;;;;5028240;28;11719;-75
2021/11/09 10:10:04;;;;;;;;;28.25;24.75;;;;;;;;5031721;28;10939;-77
2021/11/09 10:12:34;;;;;;;;;21.50;20.00;;;;;;;;5034309;28;10998;-78
2021/11/09 10:15:10;;;;;;;;;17.00;17.00;;;;;;;;5039199;28;11322;-77
2021/11/09 10:17:40;;;;;;;;;13.00;13.00;;;;;;;;5033025;28;10455;-77
2021/11/09 10:20:13;;;;;;;;;16.50;14.25;;;;;;;;5036817;28;10470;-77
2021/11/09 10:22:41;;;;;;;;;18.75;18.75;;;;;;;;5044563;28;10377;-77
2021/11/09 10:25:11;;;;;;;;;18.50;17.25;;;;;;;;5031414;28;10354;-78
2021/11/09 10:27:42;;;;;;;;;14.00;13.50;;;;;;;;5031481;28;10125;-78
2021/11/09 10:30:14;;;;;;;;;20.50;18.75;;;;;;;;5034553;28;10149;-78
2021/11/09 10:32:41;;;;;;;;;19.25;18.75;;;;;;;;5032192;28;10272;-79
2021/11/09 10:35:14;;;;;;;;;18.00;16.00;;;;;;;;5034583;28;9982;-78
2021/11/09 10:37:47;;;;;;;;;19.75;19.75;;;;;;;;5027890;28;10027;-78
2021/11/09 10:40:17;;;;;;;;;14.50;10.25;;;;;;;;5020344;28;10009;-78
2021/11/09 10:42:48;;;;;;;;;16.75;14.75;;;;;;;;5028798;28;9825;-78
2021/11/09 10:45:20;;;;;;;;;17.50;15.75;;;;;;;;5027148;28;9666;-78
2021/11/09 10:47:50;;;;;;;;;22.50;19.00;;;;;;;;5026819;28;9742;-77
2021/11/09 10:50:22;;;;;;;;;15.67;14.00;;;;;;;;5023654;28;9660;-76
2021/11/09 10:53:09;;;;;;;;;17.00;15.00;;;;;;;;5030640;28;9477;-77
2021/11/09 10:55:41;;;;;;;;;16.00;14.33;;;;;;;;5012713;28;9205;-77
2021/11/09 11:04:00;;;;;;;;;18.00;15.67;;;;;;;;5031351;28;9144;-78
2021/11/09 11:06:29;;;;;;;;;18.67;18.67;;;;;;;;5026743;28;9195;-78
2021/11/09 11:08:58;;;;;;;;;18.00;16.25;;;;;;;;5040973;28;9865;-79
2021/11/09 11:11:27;;;;;;;;;13.75;13.00;;;;;;;;5036846;28;8971;-78
2021/11/09 11:13:57;;;;;;;;;17.00;14.00;;;;;;;;5032186;28;8993;-78
2021/11/09 11:16:26;;;;;;;;;15.50;12.00;;;;;;;;5024879;28;8890;-78
2021/11/09 11:18:55;;;;;;;;;14.50;13.00;;;;;;;;5031730;28;8966;-78
2021/11/09 11:21:25;;;;;;;;;18.25;14.00;;;;;;;;5022390;28;9692;-79
2021/11/09 11:23:53;;;;;;;;;18.50;15.00;;;;;;;;5039018;28;8959;-79
2021/11/09 11:26:21;;;;;;;;;14.50;13.25;;;;;;;;5033689;28;8964;-79
2021/11/09 11:28:50;;;;;;;;;14.25;12.75;;;;;;;;5035027;28;8881;-79
2021/11/09 11:31:19;;;;;;;;;11.00;11.00;;;;;;;;5027740;28;8848;-77
2021/11/09 11:33:49;;;;;;;;;12.25;12.25;;;;;;;;5023756;28;8979;-80
2021/11/09 11:36:17;;;;;;;;;16.00;11.75;;;;;;;;5016533;28;8874;-78
2021/11/09 11:38:45;;;;;;;;;12.50;12.50;;;;;;;;5052228;28;8841;-78
2021/11/09 11:41:13;;;;;;;;;10.50;10.50;;;;;;;;5032468;28;8882;-78
2021/11/09 11:43:59;;;;;;;;;8.25;7.75;;;;;;;;5036189;28;8893;-79
2021/11/09 11:46:51;;;;;;;;;10.00;6.75;;;;;;;;5022256;28;9009;-76
2021/11/09 11:49:26;;;;;;;;;12.00;8.75;;;;;;;;5018679;28;8877;-77
2021/11/09 11:52:12;;;;;;;;;10.00;9.50;;;;;;;;5018817;28;8861;-79
2021/11/09 11:54:59;;;;;;;;;10.50;7.75;;;;;;;;5019010;28;8884;-77
2021/11/09 11:57:46;;;;;;;;;8.50;6.50;;;;;;;;5028729;28;8940;-78
2021/11/09 12:00:45;;;;;;;;;6.00;5.50;;;;;;;;5011903;28;8949;-77
2021/11/09 12:03:33;;;;;;;;;7.50;6.00;;;;;;;;5022850;28;8898;-78
2021/11/09 12:06:03;;;;;;;;;6.50;6.00;;;;;;;;5025656;28;9655;-81
2021/11/09 12:08:38;;;;;;;;;7.00;7.00;;;;;;;;5026126;28;8877;-77
2021/11/09 12:11:06;;;;;;;;;6.00;6.00;;;;;;;;5039820;28;9708;-77
2021/11/09 12:13:54;;;;;;;;;6.75;6.75;;;;;;;;5024781;28;8872;-77
2021/11/09 12:16:52;;;;;;;;;9.50;6.50;;;;;;;;5024752;28;9472;-80
2021/11/09 12:19:56;;;;;;;;;4.00;4.00;;;;;;;;5023411;28;8881;-79
2021/11/09 12:22:37;;;;;;;;;6.75;4.75;;;;;;;;5035942;28;8874;-81
2021/11/09 12:25:10;;;;;;;;;4.00;4.00;;;;;;;;5029557;28;8870;-79
2021/11/09 12:28:00;;;;;;;;;6.75;6.75;;;;;;;;5040437;28;8964;-78
2021/11/09 12:30:48;;;;;;;;;12.00;6.50;;;;;;;;5032652;28;8843;-78
2021/11/09 12:33:17;;;;;;;;;8.25;6.00;;;;;;;;5015865;28;8979;-77
2021/11/09 12:35:47;;;;;;;;;1.00;1.00;;;;;;;;5018200;28;9546;-80
2021/11/09 12:38:18;;;;;;;;;8.00;5.25;;;;;;;;5020913;28;8889;-78
2021/11/09 12:40:50;;;;;;;;;4.50;4.00;;;;;;;;5031873;28;8946;-80
2021/11/09 12:43:23;;;;;;;;;6.75;4.25;;;;;;;;5026264;28;8891;-79
2021/11/09 12:45:54;;;;;;;;;2.25;2.25;;;;;;;;5009355;28;8876;-77
2021/11/09 12:48:27;;;;;;;;;4.25;4.25;;;;;;;;5028719;28;8851;-80
2021/11/09 12:50:58;;;;;;;;;5.25;5.00;;;;;;;;5041016;28;8867;-80
2021/11/09 12:53:28;;;;;;;;;5.25;5.25;;;;;;;;5042324;28;9656;-80
2021/11/09 12:56:07;;;;;;;;;3.75;3.00;;;;;;;;5033980;28;8889;-79
2021/11/09 12:58:38;;;;;;;;;7.00;4.75;;;;;;;;5039409;28;8874;-79
2021/11/09 13:01:33;;;;;;;;;6.00;6.00;;;;;;;;5036878;28;8858;-80
2021/11/09 13:04:09;;;;;;;;;10.00;6.60;;;;;;;;5022202;28;9022;-77
2021/11/09 13:06:46;;;;;;;;;9.00;6.00;;;;;;;;5029674;28;8841;-77
2021/11/09 13:09:20;;;;;;;;;6.25;6.00;;;;;;;;5021189;28;8902;-79
2021/11/09 13:11:51;;;;;;;;;5.75;5.75;;;;;;;;5027831;28;8865;-76
2021/11/09 13:14:19;;;;;;;;;6.75;5.50;;;;;;;;5024139;28;8901;-77
2021/11/09 13:16:49;;;;;;;;;9.00;6.75;;;;;;;;5020911;28;8906;-80
2021/11/09 13:19:18;;;;;;;;;7.00;5.25;;;;;;;;5039842;28;8858;-80
2021/11/09 13:21:52;;;;;;;;;7.00;4.50;;;;;;;;5034322;28;9691;-80
2021/11/09 13:24:21;;;;;;;;;4.50;4.50;;;;;;;;5038372;28;9604;-80
2021/11/09 13:26:53;;;;;;;;;8.00;6.75;;;;;;;;5010594;28;8891;-80
2021/11/09 13:29:21;;;;;;;;;9.00;9.00;;;;;;;;5031416;28;8872;-80
2021/11/09 13:31:48;;;;;;;;;6.50;6.00;;;;;;;;5032126;28;8802;-80
2021/11/09 13:34:16;;;;;;;;;7.00;7.00;;;;;;;;5031526;28;8942;-80
2021/11/09 13:36:44;;;;;;;;;6.50;6.50;;;;;;;;5029767;28;8868;-80
2021/11/09 13:39:12;;;;;;;;;5.25;5.25;;;;;;;;5032912;28;8854;-78
2021/11/09 13:41:42;;;;;;;;;8.75;6.00;;;;;;;;5037885;28;8952;-80
2021/11/09 13:44:11;;;;;;;;;6.25;6.25;;;;;;;;5019487;28;8897;-78
2021/11/09 13:46:41;;;;;;;;;8.25;5.00;;;;;;;;5040972;28;8885;-79
2021/11/09 13:49:12;;;;;;;;;6.25;4.50;;;;;;;;5035118;28;8914;-79
2021/11/09 13:51:47;;;;;;;;;8.00;7.00;;;;;;;;5035882;28;8992;-80
2021/11/09 13:54:18;;;;;;;;;5.00;5.00;;;;;;;;5039357;28;8858;-79
2021/11/09 13:56:51;;;;;;;;;4.50;4.50;;;;;;;;5044506;28;8909;-80
2021/11/09 13:59:25;;;;;;;;;4.00;4.00;;;;;;;;5024194;28;8873;-79
2021/11/09 14:01:57;;;;;;;;;5.75;5.25;;;;;;;;5025877;28;8846;-80
2021/11/09 14:18:54;;;;;;;;;7.50;5.50;;;;;;;;5024439;28;8890;-79
2021/11/09 14:21:31;;;;;;;;;3.75;3.75;;;;;;;;5040172;28;8979;-79
2021/11/09 14:23:59;;;;;;;;;6.75;5.75;;;;;;;;5037639;28;8882;-80
2021/11/09 14:26:28;;;;;;;;;8.00;6.00;;;;;;;;5030999;28;8869;-79
2021/11/09 14:28:58;;;;;;;;;7.50;5.50;;;;;;;;5028490;28;8894;-78
2021/11/09 14:31:28;;;;;;;;;4.50;4.50;;;;;;;;5022403;28;8847;-77
2021/11/09 14:34:11;;;;;;;;;6.50;5.50;;;;;;;;5025091;28;8855;-76
2021/11/09 14:36:39;;;;;;;;;6.75;5.25;;;;;;;;5018033;28;8886;-78
2021/11/09 14:39:13;;;;;;;;;5.00;5.00;;;;;;;;5025349;28;8915;-78
2021/11/09 14:42:08;;;;;;;;;5.75;5.75;;;;;;;;5023907;28;8902;-79
2021/11/09 14:45:06;;;;;;;;;2.00;2.00;;;;;;;;5017452;28;9019;-78
2021/11/09 14:47:43;;;;;;;;;6.25;5.25;;;;;;;;5045500;28;8889;-78
2021/11/09 14:50:22;;;;;;;;;6.00;6.00;;;;;;;;5041924;28;8858;-79
2021/11/09 14:52:51;;;;;;;;;11.25;6.50;;;;;;;;5037142;28;8914;-78
2021/11/09 14:55:31;;;;;;;;;0.00;0.00;;;;;;;;5045530;28;8862;-79
2021/11/09 14:57:58;;;;;;;;;7.25;4.25;;;;;;;;5044755;28;8878;-79
2021/11/09 15:00:27;;;;;;;;;4.75;4.75;;;;;;;;5036834;28;8825;-78
2021/11/09 15:03:04;;;;;;;;;6.50;6.50;;;;;;;;5041468;28;8904;-78
2021/11/09 15:05:34;;;;;;;;;7.25;5.50;;;;;;;;5038074;28;8921;-79
2021/11/09 15:11:05;;;;;;;;;5.75;5.75;;;;;;;;5042955;28;8925;-78
2021/11/09 15:30:05;;;;;;;;;1.25;1.25;;;;;;;;5015156;28;8913;-77
2021/11/09 15:32:35;;;;;;;;;5.00;5.00;;;;;;;;5008429;28;8815;-76
2021/11/09 15:38:10;;;;;;;;;6.25;5.00;;;;;;;;5138424;27;13517;-74
2021/11/09 15:40:38;;;;;;;;;6.00;5.50;;;;;;;;5118978;27;8988;-74
2021/11/09 15:43:05;;;;;;;;;5.25;3.75;;;;;;;;5121626;27;8864;-74
2021/11/09 15:45:33;;;;;;;;;4.00;4.00;;;;;;;;5120091;27;8979;-73
2021/11/09 15:48:00;;;;;;;;;4.33;4.33;;;;;;;;5120662;27;8845;-76
2021/11/09 15:50:27;;;;;;;;;3.25;3.00;;;;;;;;5124270;27;8993;-75
2021/11/09 15:52:55;;;;;;;;;6.33;4.33;;;;;;;;5118554;27;8863;-76
2021/11/09 15:55:23;;;;;;;;;4.33;4.33;;;;;;;;5119869;27;9250;-77
2021/11/09 15:57:50;;;;;;;;;3.33;3.33;;;;;;;;5122076;27;9473;-76
2021/11/09 16:00:18;;;;;;;;;3.67;3.67;;;;;;;;5117528;27;9269;-75
2021/11/09 16:02:46;;;;;;;;;8.75;3.25;;;;;;;;5100765;28;9399;-77
2021/11/09 16:05:13;;;;;;;;;3.25;3.25;;;;;;;;5094587;28;9537;-76
2021/11/09 16:07:42;;;;;;;;;4.00;4.00;;;;;;;;5093803;28;9566;-76
2021/11/09 16:10:14;;;;;;;;;4.50;4.50;;;;;;;;5096000;28;9614;-77
2021/11/09 16:12:43;;;;;;;;;4.50;4.00;;;;;;;;5097698;28;9794;-77
2021/11/09 16:15:11;;;;;;;;;5.25;3.75;;;;;;;;5091675;28;9909;-76
2021/11/09 16:17:39;;;;;;;;;4.00;4.00;;;;;;;;5093907;28;10033;-77
2021/11/09 16:20:08;;;;;;;;;2.00;2.00;;;;;;;;5098450;28;10158;-76
2021/11/09 16:22:36;;;;;;;;;6.75;5.50;;;;;;;;5097860;28;10289;-76
2021/11/09 16:25:04;;;;;;;;;12.00;11.50;;;;;;;;5099920;28;10553;-76
2021/11/09 16:27:31;;;;;;;;;10.25;10.25;;;;;;;;5084240;28;10835;-76
2021/11/09 16:30:08;;;;;;;;;6.50;5.25;;;;;;;;5096628;28;10955;-77
2021/11/09 16:32:37;;;;;;;;;6.00;6.00;;;;;;;;5088302;28;10736;-76
2021/11/09 16:35:10;;;;;;;;;6.00;6.00;;;;;;;;5092048;28;10628;-74
2021/11/09 16:37:39;;;;;;;;;9.50;9.50;;;;;;;;5086793;28;10800;-75
2021/11/09 16:40:13;;;;;;;;;8.50;6.75;;;;;;;;5092609;28;11191;-76
2021/11/09 16:42:43;;;;;;;;;11.75;9.25;;;;;;;;5094467;28;10905;-75
2021/11/09 16:45:14;;;;;;;;;12.00;10.00;;;;;;;;5080042;28;10946;-75
2021/11/09 16:47:43;;;;;;;;;10.75;10.75;;;;;;;;5087513;28;10956;-74
2021/11/09 16:52:57;;;;;;;;;14.75;14.75;;;;;;;;5082755;28;11453;-75
2021/11/09 16:55:42;;;;;;;;;18.75;17.25;;;;;;;;5084983;28;11509;-75
2021/11/09 17:01:03;;;;;;;;;18.25;16.00;;;;;;;;5059824;27;11574;-75
2021/11/09 17:03:54;;;;;;;;;18.25;18.25;;;;;;;;5077465;28;11514;-75
2021/11/09 18:21:04;;;;;;;;;19.25;18.25;;;;;;;;5039602;28;11578;-82
2021/11/09 18:23:33;;;;;;;;;15.75;13.00;;;;;;;;5036026;28;11583;-84
2021/11/09 18:26:00;;;;;;;;;16.00;16.00;;;;;;;;5058135;28;11539;-87